Weather observations for the past three days for
Alva, Alva Regional Airport
Imperial (Metric)
Date Time (cdt) Wind (mph) Vis. (mi.) Weather Sky Cond. Temperature (ºF) Relative Humidity Wind Chill (°F) Heat Index (°F) Pressure Precipitation (in)
Air Dwpt 6 hour altimeter (in) sea level (mb) 1 hr 3 hr 6 hr
Max. Min.
05 20:55 SE 12 10.00 Fair CLR 91.4 60.8 36% 91 29.87 0.0
05 20:35 SE 10 10.00 Fair CLR 93.2 60.8 34% 93 29.87 0.0
05 20:15 SE 10 10.00 Fair CLR 93.2 60.8 34% 93 29.87 0.0
05 19:55 SE 12 10.00 Fair CLR 95 60.8 32% 95 29.87 0.0
05 19:35 SE 14 10.00 Fair CLR 96.8 60.8 30% 97 29.87 0.0
05 19:15 SE 14 10.00 Fair CLR 98.6 60.8 29% 99 29.87 0.0
05 18:55 S 15 10.00 Fair CLR 98.6 62.6 31% 100 29.86 0.0
05 18:35 SE 18 G 24 10.00 A Few Clouds FEW095 100.4 62.6 29% 102 29.86 0.0
05 18:15 SE 14 G 20 10.00 Partly Cloudy SCT090 100.4 62.6 29% 102 29.85 0.0
05 17:55 SE 12 G 21 10.00 Fair CLR 100.4 62.6 29% 102 29.85 0.0
05 17:35 S 14 10.00 A Few Clouds FEW090 102.2 62.6 27% 104 29.84 0.0
05 17:15 S 13 G 18 10.00 Fair CLR 102.2 62.6 27% 104 29.84 0.0
05 16:55 SE 10 G 16 10.00 Fair CLR 100.4 62.6 29% 102 29.84 0.0
05 16:35 SE 13 10.00 A Few Clouds FEW085 102.2 64.4 29% 106 29.85 0.0
05 16:15 S 16 G 23 10.00 Partly Cloudy SCT085 102.2 64.4 29% 106 29.86 0.0
05 15:55 S 14 G 20 10.00 A Few Clouds FEW085 100.4 64.4 31% 104 29.87 0.0
05 15:35 S 9 G 18 10.00 Fair CLR 100.4 64.4 31% 104 29.87 0.0
05 15:15 S 16 G 24 10.00 A Few Clouds FEW080 102.2 64.4 29% 106 29.88 0.0
05 14:55 E 10 G 17 10.00 A Few Clouds FEW080 98.6 64.4 33% 101 29.89 0.0
05 12:55 SE 13 G 20 10.00 Fair CLR 100.4 64.4 31% 104 29.93 0.0
05 12:35 Vrbl 6 G 20 10.00 A Few Clouds FEW070 98.6 66.2 35% 103 29.94 0.0
05 12:15 S 9 G 23 10.00 Fair CLR 98.6 66.2 35% 103 29.94 0.0
05 11:55 S 13 10.00 Fair CLR 98.6 66.2 35% 103 29.94 0.0
05 11:35 S 16 10.00 Fair CLR 96.8 66.2 37% 100 29.93 0.0
05 11:15 S 13 G 21 10.00 Fair CLR 96.8 66.2 37% 100 29.94 0.0
05 10:55 SW 14 10.00 Fair CLR 95 68 41% 100 29.94 0.0
05 10:35 S 15 10.00 Fair CLR 93.2 68 44% 98 29.94 0.0
05 10:15 S 14 10.00 Fair CLR 91.4 68 46% 96 29.94 0.0
05 09:55 S 14 10.00 Fair CLR 89.6 68 49% 93 29.94 0.0
05 09:35 S 16 10.00 Fair CLR 87.8 68 52% 91 29.94 0.0
05 09:15 S 16 10.00 Fair CLR 87.8 68 52% 91 29.93 0.0
05 08:55 S 13 10.00 Fair CLR 84.2 68 58% 87 29.93 0.0
05 08:35 S 9 8.00 Fair CLR 82.4 68 62% 85 29.93 0.0
05 08:15 S 9 10.00 Fair CLR 80.6 68 66% 83 29.92 0.0
05 07:55 S 9 10.00 Fair CLR 78.8 66.2 65% 81 29.91 0.0
05 07:35 S 7 10.00 Fair CLR 77 66.2 69% 79 29.91 0.0
05 07:15 S 8 10.00 Fair CLR 77 66.2 69% 79 29.91 0.0
05 06:55 S 9 10.00 Fair CLR 77 66.2 69% 79 29.9 0.0
05 06:35 S 10 10.00 Fair CLR 78.8 66.2 65% 81 29.91 0.0
05 06:15 S 9 10.00 Fair CLR 78.8 66.2 65% 81 29.91 0.0
05 05:55 S 10 10.00 Fair CLR 78.8 66.2 65% 81 29.91 0.0
05 05:35 S 12 10.00 Fair CLR 78.8 66.2 65% 81 29.91 0.0
05 05:15 S 10 10.00 Fair CLR 78.8 66.2 65% 81 29.91 0.0
05 04:55 S 9 10.00 Fair CLR 80.6 66.2 62% 83 29.91 0.0
05 04:35 S 10 10.00 Fair CLR 80.6 66.2 62% 83 29.91 0.0
05 04:15 S 10 10.00 Fair CLR 80.6 66.2 62% 83 29.91 0.0
05 03:55 S 9 10.00 Fair CLR 80.6 66.2 62% 83 29.92 0.0
05 03:35 S 10 10.00 Fair CLR 80.6 66.2 62% 83 29.92 0.0
05 03:15 S 10 10.00 Fair CLR 80.6 66.2 62% 83 29.92 0.0
05 02:55 S 9 10.00 Fair CLR 82.4 66.2 58% 85 29.92 0.0
05 02:35 S 12 10.00 Fair CLR 84.2 66.2 55% 87 29.92 0.0
05 02:15 S 12 10.00 Fair CLR 84.2 66.2 55% 87 29.92 0.0
05 01:55 S 12 10.00 Fair CLR 86 66.2 52% 88 29.92 0.0
05 01:35 S 15 10.00 Fair CLR 86 66.2 52% 88 29.91 0.0
05 01:15 S 12 10.00 Fair CLR 86 66.2 52% 88 29.9 0.0
05 00:55 S 12 10.00 Fair CLR 86 66.2 52% 88 29.9 0.0
05 00:35 S 13 10.00 Fair CLR 86 66.2 52% 88 29.89 0.0
05 00:15 S 12 10.00 Fair CLR 86 66.2 52% 88 29.9 0.0
04 23:55 S 13 10.00 Fair CLR 87.8 66.2 49% 90 29.9 0.0
04 23:35 S 12 10.00 Fair CLR 87.8 66.2 49% 90 29.9 0.0
04 23:15 SE 12 10.00 Fair CLR 87.8 66.2 49% 90 29.91 0.0
04 22:35 SE 9 10.00 Fair CLR 87.8 66.2 49% 90 29.91 0.0
04 22:15 SE 10 10.00 Fair CLR 89.6 64.4 43% 91 29.9 0.0
04 21:55 SE 9 10.00 Fair CLR 89.6 64.4 43% 91 29.9 0.0
04 21:35 SE 10 10.00 Fair CLR 91.4 64.4 41% 93 29.88 0.0
04 21:15 SE 12 10.00 Fair CLR 91.4 64.4 41% 93 29.86 0.0
04 20:55 SE 10 10.00 Fair CLR 93.2 64.4 39% 95 29.85 0.0
04 20:35 SE 9 10.00 Fair CLR 93.2 64.4 39% 95 29.85 0.0
04 20:15 SE 12 10.00 Fair CLR 95 64.4 36% 97 29.84 0.0
04 19:55 SE 13 10.00 Fair CLR 96.8 64.4 34% 99 29.83 0.0
04 19:35 SE 16 10.00 Fair CLR 96.8 64.4 34% 99 29.83 0.0
04 19:15 SE 15 10.00 Fair CLR 98.6 62.6 31% 100 29.83 0.0
04 18:55 SE 14 10.00 Fair CLR 100.4 64.4 31% 104 29.83 0.0
04 18:35 SE 15 10.00 Fair CLR 100.4 64.4 31% 104 29.83 0.0
04 18:15 SE 14 G 22 10.00 Fair CLR 100.4 64.4 31% 104 29.82 0.0
04 17:55 S 13 10.00 Fair CLR 100.4 64.4 31% 104 29.83 0.0
04 17:35 SE 14 G 22 10.00 Fair CLR 100.4 64.4 31% 104 29.83 0.0
04 17:15 S 9 G 16 10.00 Fair CLR 100.4 64.4 31% 104 29.83 0.0
04 16:55 SE 15 10.00 Fair CLR 102.2 66.2 31% 107 29.83 0.0
04 16:35 SE 17 10.00 Fair CLR 100.4 66.2 33% 105 29.83 0.0
04 16:15 SE 15 G 22 10.00 Fair CLR 100.4 66.2 33% 105 29.84 0.0
04 15:55 SE 9 G 17 10.00 Fair CLR 100.4 66.2 33% 105 29.84 0.0
04 15:35 SE 13 G 20 10.00 Fair CLR 100.4 68 35% 106 29.85 0.0
04 15:15 SE 12 G 20 10.00 Fair CLR 100.4 68 35% 106 29.86 0.0
04 14:55 S 15 G 23 10.00 Fair CLR 98.6 68 37% 104 29.87 0.0
04 14:35 SE 12 10.00 Fair CLR 98.6 69.8 39% 106 29.87 0.0
04 14:15 SE 9 G 18 10.00 Fair CLR 98.6 69.8 39% 106 29.87 0.0
04 13:55 S 10 G 18 10.00 Fair CLR 98.6 69.8 39% 106 29.88 0.0
04 13:35 S 8 G 20 10.00 Fair CLR 96.8 71.6 44% 105 29.88 0.0
04 13:15 Vrbl 6 G 15 10.00 Fair CLR 96.8 71.6 44% 105 29.89 0.0
04 12:55 S 9 10.00 Fair CLR 95 71.6 47% 103 29.9 0.0
04 12:35 SE 12 10.00 Fair CLR 93.2 71.6 50% 101 29.91 0.0
04 12:15 S 8 G 16 10.00 Fair CLR 93.2 71.6 50% 101 29.92 0.0
04 11:55 S 10 10.00 Fair CLR 91.4 71.6 52% 99 29.92 0.0
04 11:35 S 10 10.00 Fair CLR 89.6 71.6 55% 96 29.93 0.0
04 11:15 S 8 G 15 10.00 Fair CLR 87.8 71.6 59% 94 29.93 0.0
04 10:55 S 13 10.00 Fair CLR 86 71.6 62% 92 29.93 0.0
04 10:35 S 12 10.00 Fair CLR 86 71.6 62% 92 29.92 0.0
04 10:15 S 13 10.00 Fair CLR 84.2 71.6 66% 90 29.92 0.0
04 09:55 S 12 10.00 Fair CLR 82.4 71.6 70% 87 29.93 0.0
04 09:35 S 13 10.00 Fair CLR 82.4 71.6 70% 87 29.93 0.0
04 09:15 S 13 10.00 Fair CLR 80.6 71.6 74% 85 29.93 0.0
04 08:55 S 13 10.00 Fair CLR 78.8 71.6 79% 82 29.93 0.0
04 08:35 S 12 10.00 Fair CLR 78.8 69.8 74% 81 29.92 0.0
04 08:15 S 12 10.00 Fair CLR 77 71.6 83% 78 29.91 0.0
04 07:55 SE 10 10.00 Fair CLR 75.2 69.8 83% 75 29.91 0.0
04 07:35 SE 10 10.00 Fair CLR 75.2 69.8 83% 75 29.9 0.0
04 07:15 SE 9 9.00 Fair CLR 73.4 69.8 89% 29.9 0.0
04 06:55 SE 9 10.00 Fair CLR 73.4 69.8 89% 29.89 0.0
04 06:35 SE 7 9.00 Fair CLR 75.2 69.8 83% 75 29.89 0.0
04 06:15 SE 8 4.00 Fair with Haze CLR 75.2 69.8 83% 75 29.89 0.0
04 05:55 SE 7 10.00 Fair CLR 75.2 69.8 83% 75 29.89 0.0
04 05:35 SE 7 10.00 Fair CLR 75.2 69.8 83% 75 29.89 0.0
04 05:15 SE 6 10.00 Fair CLR 75.2 69.8 83% 75 29.89 0.0
04 04:55 S 5 10.00 Fair CLR 77 71.6 83% 78 29.89 0.0
04 04:35 S 9 10.00 Fair CLR 77 69.8 79% 79 29.88 0.0
04 04:15 S 10 10.00 Fair CLR 78.8 71.6 79% 82 29.88 0.0
04 03:55 S 10 10.00 Fair CLR 78.8 71.6 79% 82 29.88 0.0
04 03:35 S 10 10.00 Fair CLR 78.8 71.6 79% 82 29.88 0.0
04 03:15 S 12 10.00 Fair CLR 78.8 71.6 79% 82 29.88 0.0
04 02:55 S 12 10.00 Fair CLR 80.6 71.6 74% 85 29.88 0.0
04 02:35 S 15 10.00 Fair CLR 80.6 71.6 74% 85 29.88 0.0
04 02:15 S 14 10.00 Fair CLR 80.6 69.8 70% 84 29.88 0.0
04 01:55 S 14 10.00 Fair CLR 80.6 69.8 70% 84 29.88 0.0
04 01:35 S 15 10.00 Fair CLR 82.4 69.8 66% 86 29.89 0.0
04 01:15 S 16 G 22 10.00 Fair CLR 82.4 69.8 66% 86 29.89 0.0
04 00:55 S 17 G 24 10.00 Fair CLR 82.4 69.8 66% 86 29.88 0.0
04 00:35 S 21 10.00 Fair and Breezy CLR 84.2 69.8 62% 88 29.88 0.0
04 00:15 S 17 G 24 10.00 Fair CLR 84.2 69.8 62% 88 29.87 0.0
03 23:55 S 21 10.00 Fair and Breezy CLR 86 69.8 59% 91 29.86 0.0
03 23:15 S 18 G 29 10.00 Fair CLR 86 68 55% 89 29.86 0.0
03 22:55 S 20 G 30 10.00 Fair CLR 87.8 68 52% 91 29.86 0.0
03 22:35 S 21 10.00 Fair and Breezy CLR 87.8 68 52% 91 29.86 0.0
03 22:15 S 22 10.00 Fair and Breezy CLR 87.8 68 52% 91 29.85 0.0
03 21:55 S 22 10.00 Fair and Breezy CLR 89.6 68 49% 93 29.84 0.0
03 21:35 S 21 G 28 10.00 Fair and Breezy CLR 89.6 66.2 46% 92 29.84 0.0
03 21:15 S 20 10.00 Fair CLR 91.4 66.2 44% 94 29.83 0.0
03 20:55 SE 22 10.00 Fair and Breezy CLR 91.4 66.2 44% 94 29.83 0.0
03 20:35 SE 16 G 23 10.00 Fair CLR 91.4 66.2 44% 94 29.82 0.0
03 20:15 SE 18 G 26 10.00 Fair CLR 93.2 66.2 41% 96 29.81 0.0
03 19:55 SE 24 10.00 Fair and Breezy CLR 95 64.4 36% 97 29.8 0.0
03 19:35 SE 20 G 28 10.00 Fair CLR 96.8 64.4 34% 99 29.8 0.0
03 19:15 SE 23 G 30 10.00 Fair and Breezy CLR 98.6 64.4 33% 101 29.79 0.0
03 18:55 SE 22 G 29 10.00 Fair and Breezy CLR 100.4 64.4 31% 104 29.79 0.0
03 18:35 SE 22 10.00 Fair and Breezy CLR 100.4 64.4 31% 104 29.78 0.0
03 18:15 SE 17 G 24 10.00 Fair CLR 102.2 64.4 29% 106 29.78 0.0
03 17:55 S 22 10.00 Fair and Breezy CLR 102.2 64.4 29% 106 29.78 0.0
03 17:35 SE 20 10.00 Fair CLR 102.2 64.4 29% 106 29.78 0.0
03 17:15 SE 17 G 24 10.00 Fair CLR 102.2 64.4 29% 106 29.78 0.0
03 16:55 SE 15 10.00 Fair CLR 102.2 64.4 29% 106 29.78 0.0
03 16:35 SE 18 G 25 10.00 Fair CLR 102.2 64.4 29% 106 29.79 0.0
03 16:15 S 18 G 32 10.00 Fair CLR 104 64.4 28% 108 29.79 0.0
03 15:55 SE 12 G 20 10.00 Fair CLR 104 62.6 26% 107 29.8 0.0
03 15:35 S 12 G 20 10.00 Fair CLR 104 64.4 28% 108 29.81 0.0
03 15:15 S 13 G 24 10.00 Fair CLR 102.2 64.4 29% 106 29.81 0.0
03 14:55 S 16 G 23 10.00 Fair CLR 102.2 64.4 29% 106 29.82 0.0
03 14:35 S 16 G 23 10.00 Fair CLR 102.2 66.2 31% 107 29.83 0.0
03 14:15 S 13 G 20 10.00 Fair CLR 100.4 66.2 33% 105 29.83 0.0
03 13:55 S 10 G 18 10.00 Fair CLR 100.4 66.2 33% 105 29.84 0.0
03 13:35 S 15 G 24 10.00 Fair CLR 100.4 66.2 33% 105 29.85 0.0
03 13:15 S 15 G 23 10.00 Fair CLR 98.6 68 37% 104 29.86 0.0
03 12:55 S 15 G 26 10.00 Fair CLR 98.6 68 37% 104 29.87 0.0
03 12:35 S 16 G 24 10.00 Fair CLR 96.8 68 39% 102 29.87 0.0
03 12:15 S 15 G 24 10.00 Fair CLR 96.8 68 39% 102 29.89 0.0
03 11:55 S 15 G 22 10.00 Fair CLR 95 68 41% 100 29.89 0.0
03 11:35 S 17 10.00 Fair CLR 95 68 41% 100 29.9 0.0
03 11:15 S 14 G 23 10.00 Fair CLR 93.2 68 44% 98 29.9 0.0
03 10:55 S 14 G 21 10.00 Fair CLR 91.4 68 46% 96 29.9 0.0
03 10:35 S 12 G 21 10.00 Fair CLR 89.6 68 49% 93 29.91 0.0
03 10:15 S 16 10.00 Fair CLR 87.8 68 52% 91 29.91 0.0
03 09:55 S 15 10.00 Fair CLR 87.8 68 52% 91 29.91 0.0
03 09:35 S 17 10.00 Fair CLR 86 68 55% 89 29.92 0.0
03 09:15 S 15 10.00 Fair CLR 84.2 68 58% 87 29.92 0.0
03 08:55 S 13 10.00 Fair CLR 84.2 68 58% 87 29.92 0.0
03 08:35 S 12 10.00 Fair CLR 82.4 68 62% 85 29.92 0.0
03 08:15 S 13 10.00 Fair CLR 80.6 68 66% 83 29.91 0.0
03 07:55 S 10 10.00 Partly Cloudy SCT120 80.6 68 66% 83 29.91 0.0
03 07:35 S 10 10.00 Partly Cloudy SCT120 78.8 68 70% 81 29.9 0.0
03 07:15 S 9 10.00 Fair CLR 78.8 66.2 65% 81 29.9 0.0
03 06:55 S 12 10.00 A Few Clouds FEW120 80.6 66.2 62% 83 29.9 0.0
03 06:35 S 12 10.00 A Few Clouds FEW120 82.4 66.2 58% 85 29.9 0.0
03 06:15 S 12 G 17 10.00 A Few Clouds FEW120 82.4 66.2 58% 85 29.9 0.0
03 05:55 S 15 10.00 Partly Cloudy SCT120 82.4 66.2 58% 85 29.9 0.0
03 05:35 S 14 10.00 A Few Clouds FEW120 82.4 66.2 58% 85 29.9 0.0
03 05:15 S 14 10.00 Partly Cloudy SCT120 82.4 66.2 58% 85 29.9 0.0
03 04:55 S 14 10.00 Mostly Cloudy BKN120 82.4 66.2 58% 85 29.9 0.0
03 04:35 S 15 10.00 A Few Clouds FEW120 82.4 66.2 58% 85 29.9 0.0
03 04:15 S 16 10.00 Fair CLR 84.2 66.2 55% 87 29.9 0.0
03 03:55 S 16 10.00 Fair CLR 84.2 64.4 51% 86 29.9 0.0
03 03:35 S 15 10.00 Fair CLR 84.2 64.4 51% 86 29.89 0.0
03 03:15 S 15 10.00 Fair CLR 84.2 64.4 51% 86 29.89 0.0
03 02:55 S 15 G 22 10.00 Fair CLR 84.2 64.4 51% 86 29.89 0.0
03 02:35 S 13 10.00 Fair CLR 84.2 64.4 51% 86 29.89 0.0
03 02:15 S 14 10.00 Fair CLR 84.2 62.6 48% 85 29.89 0.0
03 01:55 S 15 10.00 Fair CLR 86 62.6 46% 87 29.89 0.0
03 01:35 S 16 10.00 Fair CLR 86 62.6 46% 87 29.89 0.0
03 01:15 S 15 10.00 Fair CLR 86 62.6 46% 87 29.89 0.0
03 00:55 S 16 10.00 Fair CLR 86 62.6 46% 87 29.89 0.0
03 00:35 S 14 10.00 Fair CLR 87.8 62.6 43% 88 29.88 0.0
03 00:15 S 15 G 22 10.00 Fair CLR 87.8 62.6 43% 88 29.88 0.0
02 23:55 S 18 10.00 Fair CLR 87.8 62.6 43% 88 29.87 0.0
02 23:35 S 16 G 24 10.00 Fair CLR 89.6 62.6 41% 90 29.87 0.0
02 23:15 S 17 G 24 10.00 Fair CLR 89.6 62.6 41% 90 29.87 0.0
02 22:55 S 16 10.00 Fair CLR 89.6 62.6 41% 90 29.87 0.0
02 22:35 S 15 G 22 10.00 Fair CLR 89.6 62.6 41% 90 29.88 0.0
02 22:15 S 14 10.00 Fair CLR 89.6 62.6 41% 90 29.88 0.0
02 21:55 S 15 10.00 Fair CLR 89.6 60.8 38% 90 29.87 0.0
02 21:35 SE 15 10.00 Fair CLR 91.4 60.8 36% 91 29.86 0.0
02 21:15 SE 13 10.00 Fair CLR 91.4 59 34% 91 29.85 0.0
Date Time (cdt) Wind (mph) Vis. (mi.) Weather Sky Cond. Air Dwpt Max. Min. Relative Humidity Wind Chill (°F) Heat Index (°F) altimeter (in) sea level (mb) 1 hr 3 hr 6 hr
6 hour
Temperature (ºF) Pressure Precipitation (in)